sensor_id;sensor_type;location;lat;lon;timestamp;P1;durP1;ratioP1;P2;durP2;ratioP2
15557;SDS011;7880;50.110;9.372;2023-06-10T00:03:58;7.369230769230768;;;5.730769230769231;;
15557;SDS011;7880;50.110;9.372;2023-06-10T00:09:01;7.06923076923077;;;5.43076923076923;;
15557;SDS011;7880;50.110;9.372;2023-06-10T00:14:05;7.738461538461536;;;5.130769230769232;;
15557;SDS011;7880;50.110;9.372;2023-06-10T00:19:09;6.0;;;5.5;;
15557;SDS011;7880;50.110;9.372;2023-06-10T00:24:14;6.592307692307691;;;5.4;;
15557;SDS011;7880;50.110;9.372;2023-06-10T00:29:20;7.1230769230769235;;;5.799999999999998;;
15557;SDS011;7880;50.110;9.372;2023-06-10T00:34:26;6.799999999999998;;;5.4;;
15557;SDS011;7880;50.110;9.372;2023-06-10T00:39:33;6.799999999999998;;;5.700000000000002;;
15557;SDS011;7880;50.110;9.372;2023-06-10T00:44:41;6.1;;;5.5;;
15557;SDS011;7880;50.110;9.372;2023-06-10T00:49:41;7.307692307692306;;;5.1692307692307695;;
15557;SDS011;7880;50.110;9.372;2023-06-10T00:54:46;7.530769230769229;;;6.1;;
15557;SDS011;7880;50.110;9.372;2023-06-10T00:59:51;7.538461538461541;;;5.799999999999998;;
15557;SDS011;7880;50.110;9.372;2023-06-10T01:06:48;7.038461538461541;;;5.6;;
15557;SDS011;7880;50.110;9.372;2023-06-10T01:12:01;6.06923076923077;;;5.46923076923077;;
15557;SDS011;7880;50.110;9.372;2023-06-10T01:16:53;7.269230769230769;;;5.5;;
15557;SDS011;7880;50.110;9.372;2023-06-10T01:21:56;6.576923076923078;;;5.6;;
15557;SDS011;7880;50.110;9.372;2023-06-10T01:27:03;7.307692307692306;;;5.269230769230769;;
15557;SDS011;7880;50.110;9.372;2023-06-10T01:32:29;7.038461538461541;;;5.700000000000002;;
15557;SDS011;7880;50.110;9.372;2023-06-10T01:37:18;7.153846153846154;;;5.53076923076923;;
15557;SDS011;7880;50.110;9.372;2023-06-10T01:42:20;7.738461538461536;;;5.4;;
15557;SDS011;7880;50.110;9.372;2023-06-10T01:47:25;7.707692307692307;;;5.0;;
15557;SDS011;7880;50.110;9.372;2023-06-10T01:52:29;7.530769230769229;;;5.93076923076923;;
15557;SDS011;7880;50.110;9.372;2023-06-10T01:57:37;6.4769230769230735;;;5.738461538461538;;
15557;SDS011;7880;50.110;9.372;2023-06-10T02:02:38;8.73076923076923;;;5.961538461538459;;
15557;SDS011;7880;50.110;9.372;2023-06-10T02:07:43;6.700000000000002;;;6.0;;
15557;SDS011;7880;50.110;9.372;2023-06-10T02:12:49;5.6;;;5.1000000000000005;;
15557;SDS011;7880;50.110;9.372;2023-06-10T02:17:53;6.1;;;5.5;;
15557;SDS011;7880;50.110;9.372;2023-06-10T02:22:56;8.338461538461537;;;4.861538461538462;;
15557;SDS011;7880;50.110;9.372;2023-06-10T02:28:00;7.06923076923077;;;4.830769230769231;;
15557;SDS011;7880;50.110;9.372;2023-06-10T02:33:05;6.161538461538462;;;5.53076923076923;;
15557;SDS011;7880;50.110;9.372;2023-06-10T02:38:08;8.130769230769229;;;5.5;;
15557;SDS011;7880;50.110;9.372;2023-06-10T02:43:14;8.200000000000001;;;5.299999999999999;;
15557;SDS011;7880;50.110;9.372;2023-06-10T02:48:23;6.5;;;5.5;;
15557;SDS011;7880;50.110;9.372;2023-06-10T02:53:24;6.838461538461539;;;5.56923076923077;;
15557;SDS011;7880;50.110;9.372;2023-06-10T02:58:29;6.299999999999998;;;5.4;;
15557;SDS011;7880;50.110;9.372;2023-06-10T03:03:33;5.230769230769231;;;4.730769230769231;;
15557;SDS011;7880;50.110;9.372;2023-06-10T03:08:38;7.5;;;5.700000000000002;;
15557;SDS011;7880;50.110;9.372;2023-06-10T03:13:44;7.092307692307691;;;5.292307692307692;;
15557;SDS011;7880;50.110;9.372;2023-06-10T03:18:49;6.561538461538462;;;5.661538461538462;;
15557;SDS011;7880;50.110;9.372;2023-06-10T03:23:53;7.10769230769231;;;5.56923076923077;;
15557;SDS011;7880;50.110;9.372;2023-06-10T03:28:57;7.5;;;5.3307692307692305;;
15557;SDS011;7880;50.110;9.372;2023-06-10T03:34:13;5.8307692307692305;;;5.299999999999999;;
15557;SDS011;7880;50.110;9.372;2023-06-10T03:39:05;6.961538461538459;;;5.700000000000002;;
15557;SDS011;7880;50.110;9.372;2023-06-10T03:44:08;6.169230769230769;;;5.1692307692307695;;
15557;SDS011;7880;50.110;9.372;2023-06-10T03:49:18;5.869230769230768;;;4.299999999999999;;
15557;SDS011;7880;50.110;9.372;2023-06-10T03:54:18;5.3307692307692305;;;4.830769230769231;;
15557;SDS011;7880;50.110;9.372;2023-06-10T03:59:23;7.038461538461541;;;5.4;;
15557;SDS011;7880;50.110;9.372;2023-06-10T04:04:29;6.669230769230769;;;5.200000000000001;;
15557;SDS011;7880;50.110;9.372;2023-06-10T04:09:33;6.13846153846154;;;5.46923076923077;;
15557;SDS011;7880;50.110;9.372;2023-06-10T04:14:37;7.538461538461541;;;5.3307692307692305;;
15557;SDS011;7880;50.110;9.372;2023-06-10T04:19:40;5.461538461538459;;;4.93076923076923;;
15557;SDS011;7880;50.110;9.372;2023-06-10T04:24:45;6.700000000000002;;;4.6000000000000005;;
15557;SDS011;7880;50.110;9.372;2023-06-10T04:29:50;6.423076923076923;;;5.6692307692307695;;
15557;SDS011;7880;50.110;9.372;2023-06-10T04:34:55;7.369230769230768;;;5.299999999999999;;
15557;SDS011;7880;50.110;9.372;2023-06-10T04:40:01;5.700000000000002;;;5.1000000000000005;;
15557;SDS011;7880;50.110;9.372;2023-06-10T04:45:05;8.607692307692309;;;5.4;;
15557;SDS011;7880;50.110;9.372;2023-06-10T04:50:08;6.1;;;5.0;;
15557;SDS011;7880;50.110;9.372;2023-06-10T04:55:13;7.338461538461539;;;4.799999999999999;;
15557;SDS011;7880;50.110;9.372;2023-06-10T05:00:27;23.853846153846153;;;7.299999999999998;;
15557;SDS011;7880;50.110;9.372;2023-06-10T05:05:25;7.692307692307694;;;5.392307692307691;;
15557;SDS011;7880;50.110;9.372;2023-06-10T05:10:34;12.00769230769231;;;6.43076923076923;;
15557;SDS011;7880;50.110;9.372;2023-06-10T05:15:33;6.5;;;5.6;;
15557;SDS011;7880;50.110;9.372;2023-06-10T05:20:39;6.5;;;5.799999999999998;;
15557;SDS011;7880;50.110;9.372;2023-06-10T05:25:42;9.769230769230768;;;5.9;;
15557;SDS011;7880;50.110;9.372;2023-06-10T05:30:45;11.415384615384614;;;5.838461538461538;;
15557;SDS011;7880;50.110;9.372;2023-06-10T05:35:54;5.8307692307692305;;;5.230769230769231;;
15557;SDS011;7880;50.110;9.372;2023-06-10T05:40:57;6.438461538461538;;;5.769230769230769;;
15557;SDS011;7880;50.110;9.372;2023-06-10T05:46:00;5.799999999999998;;;5.200000000000001;;
15557;SDS011;7880;50.110;9.372;2023-06-10T05:51:02;9.507692307692308;;;5.4;;
15557;SDS011;7880;50.110;9.372;2023-06-10T05:56:06;6.1;;;5.5;;
15557;SDS011;7880;50.110;9.372;2023-06-10T06:01:13;6.630769230769232;;;5.200000000000001;;
15557;SDS011;7880;50.110;9.372;2023-06-10T06:06:14;7.369230769230768;;;5.730769230769231;;
15557;SDS011;7880;50.110;9.372;2023-06-10T06:11:19;8.46153846153846;;;6.0;;
15557;SDS011;7880;50.110;9.372;2023-06-10T06:16:24;7.700000000000002;;;5.5;;
15557;SDS011;7880;50.110;9.372;2023-06-10T06:21:27;7.238461538461536;;;5.4;;
15557;SDS011;7880;50.110;9.372;2023-06-10T06:26:31;7.792307692307693;;;6.561538461538462;;
15557;SDS011;7880;50.110;9.372;2023-06-10T06:31:34;8.23076923076923;;;5.799999999999998;;
15557;SDS011;7880;50.110;9.372;2023-06-10T06:36:38;11.376923076923076;;;6.469230769230771;;
15557;SDS011;7880;50.110;9.372;2023-06-10T06:41:47;6.299999999999998;;;5.700000000000002;;
15557;SDS011;7880;50.110;9.372;2023-06-10T06:46:46;8.83846153846154;;;6.030769230769229;;
15557;SDS011;7880;50.110;9.372;2023-06-10T06:51:50;8.400000000000002;;;6.0;;
15557;SDS011;7880;50.110;9.372;2023-06-10T06:56:53;6.469230769230771;;;5.4;;
15557;SDS011;7880;50.110;9.372;2023-06-10T07:01:59;7.06923076923077;;;5.230769230769231;;
15557;SDS011;7880;50.110;9.372;2023-06-10T07:07:02;7.299999999999998;;;4.799999999999999;;
15557;SDS011;7880;50.110;9.372;2023-06-10T07:12:07;5.56923076923077;;;4.96923076923077;;
15557;SDS011;7880;50.110;9.372;2023-06-10T07:17:15;7.669230769230769;;;5.730769230769231;;
15557;SDS011;7880;50.110;9.372;2023-06-10T07:22:19;6.200000000000002;;;5.43076923076923;;
15557;SDS011;7880;50.110;9.372;2023-06-10T07:27:18;6.230769230769231;;;5.299999999999999;;
15557;SDS011;7880;50.110;9.372;2023-06-10T07:32:27;10.007692307692308;;;5.799999999999998;;
15557;SDS011;7880;50.110;9.372;2023-06-10T07:37:27;10.200000000000001;;;7.86153846153846;;
15557;SDS011;7880;50.110;9.372;2023-06-10T07:42:44;8.638461538461538;;;6.200000000000002;;
15557;SDS011;7880;50.110;9.372;2023-06-10T07:47:37;8.692307692307692;;;5.676923076923076;;
15557;SDS011;7880;50.110;9.372;2023-06-10T07:52:42;10.807692307692308;;;5.1000000000000005;;
15557;SDS011;7880;50.110;9.372;2023-06-10T07:57:49;7.769230769230769;;;4.961538461538461;;
15557;SDS011;7880;50.110;9.372;2023-06-10T08:02:56;7.184615384615385;;;4.830769230769231;;
15557;SDS011;7880;50.110;9.372;2023-06-10T08:08:01;19.984615384615385;;;5.6;;
15557;SDS011;7880;50.110;9.372;2023-06-10T08:13:07;20.084615384615386;;;5.969230769230771;;
15557;SDS011;7880;50.110;9.372;2023-06-10T08:18:10;6.053846153846155;;;4.607692307692309;;
15557;SDS011;7880;50.110;9.372;2023-06-10T08:23:17;9.076923076923077;;;4.1000000000000005;;
15557;SDS011;7880;50.110;9.372;2023-06-10T08:28:21;9.407692307692306;;;4.369230769230769;;
15557;SDS011;7880;50.110;9.372;2023-06-10T08:33:25;7.269230769230769;;;4.799999999999999;;
15557;SDS011;7880;50.110;9.372;2023-06-10T08:38:29;10.876923076923076;;;5.799999999999998;;
15557;SDS011;7880;50.110;9.372;2023-06-10T08:43:33;5.200000000000001;;;4.700000000000001;;
15557;SDS011;7880;50.110;9.372;2023-06-10T08:48:38;9.838461538461539;;;5.1000000000000005;;
15557;SDS011;7880;50.110;9.372;2023-06-10T08:53:42;5.438461538461538;;;4.269230769230769;;
15557;SDS011;7880;50.110;9.372;2023-06-10T08:58:46;16.0;;;4.8999999999999995;;
15557;SDS011;7880;50.110;9.372;2023-06-10T09:03:55;5.407692307692309;;;4.16923076923077;;
15557;SDS011;7880;50.110;9.372;2023-06-10T09:08:55;7.930769230769228;;;3.9230769230769242;;
15557;SDS011;7880;50.110;9.372;2023-06-10T09:13:59;9.238461538461538;;;5.1692307692307695;;
15557;SDS011;7880;50.110;9.372;2023-06-10T09:19:08;9.607692307692309;;;4.6000000000000005;;
15557;SDS011;7880;50.110;9.372;2023-06-10T09:24:08;19.123076923076923;;;5.03076923076923;;
15557;SDS011;7880;50.110;9.372;2023-06-10T09:29:19;4.299999999999999;;;3.899999999999999;;
15557;SDS011;7880;50.110;9.372;2023-06-10T09:34:20;4.299999999999999;;;3.899999999999999;;
15557;SDS011;7880;50.110;9.372;2023-06-10T09:39:26;5.323076923076924;;;3.600000000000001;;
15557;SDS011;7880;50.110;9.372;2023-06-10T09:44:28;3.7307692307692295;;;3.030769230769231;;
15557;SDS011;7880;50.110;9.372;2023-06-10T09:49:37;3.7999999999999994;;;3.5;;
15557;SDS011;7880;50.110;9.372;2023-06-10T09:54:41;18.29230769230769;;;3.56923076923077;;
15557;SDS011;7880;50.110;9.372;2023-06-10T09:59:51;4.8999999999999995;;;3.630769230769232;;
15557;SDS011;7880;50.110;9.372;2023-06-10T10:04:53;3.2;;;2.899999999999999;;
15557;SDS011;7880;50.110;9.372;2023-06-10T10:09:50;4.769230769230769;;;3.600000000000001;;
15557;SDS011;7880;50.110;9.372;2023-06-10T10:14:55;5.707692307692307;;;3.546153846153847;;
15557;SDS011;7880;50.110;9.372;2023-06-10T10:20:03;5.407692307692309;;;3.600000000000001;;
15557;SDS011;7880;50.110;9.372;2023-06-10T10:25:05;5.969230769230771;;;3.130769230769232;;
15557;SDS011;7880;50.110;9.372;2023-06-10T10:30:09;4.469230769230769;;;3.0;;
15557;SDS011;7880;50.110;9.372;2023-06-10T10:35:12;7.592307692307693;;;3.399999999999999;;
15557;SDS011;7880;50.110;9.372;2023-06-10T10:40:16;3.5;;;3.2;;
15557;SDS011;7880;50.110;9.372;2023-06-10T10:45:23;6.538461538461541;;;3.5;;
15557;SDS011;7880;50.110;9.372;2023-06-10T10:50:28;4.0;;;3.43076923076923;;
15557;SDS011;7880;50.110;9.372;2023-06-10T10:55:33;4.200000000000001;;;3.26153846153846;;
15557;SDS011;7880;50.110;9.372;2023-06-10T11:00:33;8.83846153846154;;;3.899999999999999;;
15557;SDS011;7880;50.110;9.372;2023-06-10T11:05:39;5.630769230769232;;;5.1000000000000005;;
15557;SDS011;7880;50.110;9.372;2023-06-10T11:10:51;7.799999999999998;;;6.169230769230769;;
15557;SDS011;7880;50.110;9.372;2023-06-10T11:15:48;10.838461538461539;;;9.36923076923077;;
15557;SDS011;7880;50.110;9.372;2023-06-10T11:20:58;8.430769230769231;;;7.630769230769232;;
15557;SDS011;7880;50.110;9.372;2023-06-10T11:26:32;7.8230769230769255;;;6.43846153846154;;
15557;SDS011;7880;50.110;9.372;2023-06-10T11:31:18;5.869230769230768;;;4.0;;
15557;SDS011;7880;50.110;9.372;2023-06-10T11:36:18;4.569230769230769;;;3.8307692307692305;;
15557;SDS011;7880;50.110;9.372;2023-06-10T11:41:26;4.638461538461538;;;4.06923076923077;;
15557;SDS011;7880;50.110;9.372;2023-06-10T11:46:28;6.807692307692306;;;3.399999999999999;;
15557;SDS011;7880;50.110;9.372;2023-06-10T11:51:49;4.269230769230769;;;3.399999999999999;;
15557;SDS011;7880;50.110;9.372;2023-06-10T11:56:38;4.200000000000001;;;3.7999999999999994;;
15557;SDS011;7880;50.110;9.372;2023-06-10T12:01:43;3.7692307692307705;;;3.399999999999999;;
15557;SDS011;7880;50.110;9.372;2023-06-10T12:06:51;5.369230769230768;;;4.0;;
15557;SDS011;7880;50.110;9.372;2023-06-10T12:11:54;4.938461538461538;;;3.969230769230769;;
15557;SDS011;7880;50.110;9.372;2023-06-10T12:16:59;4.8;;;3.630769230769232;;
15557;SDS011;7880;50.110;9.372;2023-06-10T12:22:02;6.238461538461536;;;3.469230769230769;;
15557;SDS011;7880;50.110;9.372;2023-06-10T12:27:11;3.838461538461539;;;3.469230769230769;;
15557;SDS011;7880;50.110;9.372;2023-06-10T12:32:10;3.7000000000000006;;;3.399999999999999;;
15557;SDS011;7880;50.110;9.372;2023-06-10T12:37:21;5.969230769230771;;;3.630769230769232;;
15557;SDS011;7880;50.110;9.372;2023-06-10T12:42:21;3.600000000000001;;;3.2999999999999994;;
15557;SDS011;7880;50.110;9.372;2023-06-10T12:47:29;3.7000000000000006;;;3.2999999999999994;;
15557;SDS011;7880;50.110;9.372;2023-06-10T12:52:28;3.5;;;3.100000000000001;;
15557;SDS011;7880;50.110;9.372;2023-06-10T12:57:32;3.3307692307692305;;;3.030769230769231;;
15557;SDS011;7880;50.110;9.372;2023-06-10T13:02:36;3.399999999999999;;;3.100000000000001;;
15557;SDS011;7880;50.110;9.372;2023-06-10T13:07:42;3.399999999999999;;;3.0;;
15557;SDS011;7880;50.110;9.372;2023-06-10T13:12:44;4.838461538461538;;;3.0;;
15557;SDS011;7880;50.110;9.372;2023-06-10T13:17:50;6.169230769230769;;;3.0;;
15557;SDS011;7880;50.110;9.372;2023-06-10T13:22:55;3.630769230769232;;;3.3307692307692305;;
15557;SDS011;7880;50.110;9.372;2023-06-10T13:27:58;3.600000000000001;;;3.2999999999999994;;
15557;SDS011;7880;50.110;9.372;2023-06-10T13:33:08;3.7000000000000006;;;3.399999999999999;;
15557;SDS011;7880;50.110;9.372;2023-06-10T13:38:08;3.7692307692307705;;;3.2;;
15557;SDS011;7880;50.110;9.372;2023-06-10T13:43:13;3.100000000000001;;;2.8;;
15557;SDS011;7880;50.110;9.372;2023-06-10T13:48:14;3.2538461538461525;;;2.9538461538461536;;
15557;SDS011;7880;50.110;9.372;2023-06-10T13:53:18;6.323076923076922;;;3.792307692307692;;
15557;SDS011;7880;50.110;9.372;2023-06-10T13:58:21;3.2;;;2.899999999999999;;
15557;SDS011;7880;50.110;9.372;2023-06-10T14:03:26;3.530769230769231;;;3.2307692307692295;;
15557;SDS011;7880;50.110;9.372;2023-06-10T14:08:37;3.7999999999999994;;;3.2999999999999994;;
15557;SDS011;7880;50.110;9.372;2023-06-10T14:13:38;3.43076923076923;;;3.130769230769232;;
15557;SDS011;7880;50.110;9.372;2023-06-10T14:18:41;3.2;;;2.899999999999999;;
15557;SDS011;7880;50.110;9.372;2023-06-10T14:23:47;4.0;;;3.2;;
15557;SDS011;7880;50.110;9.372;2023-06-10T14:28:51;3.261538461538461;;;2.630769230769231;;
15557;SDS011;7880;50.110;9.372;2023-06-10T14:33:56;5.038461538461539;;;3.5;;
15557;SDS011;7880;50.110;9.372;2023-06-10T14:39:00;3.899999999999999;;;3.0;;
15557;SDS011;7880;50.110;9.372;2023-06-10T14:44:06;3.2307692307692295;;;2.93076923076923;;
15557;SDS011;7880;50.110;9.372;2023-06-10T14:49:13;3.5;;;3.2;;
15557;SDS011;7880;50.110;9.372;2023-06-10T14:54:27;3.338461538461539;;;2.7;;
15557;SDS011;7880;50.110;9.372;2023-06-10T14:59:31;4.738461538461538;;;2.630769230769231;;
15557;SDS011;7880;50.110;9.372;2023-06-10T15:04:42;3.2;;;2.899999999999999;;
15557;SDS011;7880;50.110;9.372;2023-06-10T15:09:40;3.5;;;2.899999999999999;;
15557;SDS011;7880;50.110;9.372;2023-06-10T15:14:45;3.8615384615384616;;;2.4615384615384617;;
15557;SDS011;7880;50.110;9.372;2023-06-10T15:19:56;3.6692307692307695;;;3.100000000000001;;
15557;SDS011;7880;50.110;9.372;2023-06-10T15:24:52;3.6692307692307695;;;3.100000000000001;;
15557;SDS011;7880;50.110;9.372;2023-06-10T15:30:06;4.299999999999999;;;3.869230769230768;;
15557;SDS011;7880;50.110;9.372;2023-06-10T15:35:05;10.16923076923077;;;8.299999999999999;;
15557;SDS011;7880;50.110;9.372;2023-06-10T15:40:07;5.299999999999999;;;4.1000000000000005;;
15557;SDS011;7880;50.110;9.372;2023-06-10T15:45:12;83.07692307692308;;;7.869230769230768;;
15557;SDS011;7880;50.110;9.372;2023-06-10T15:50:15;7.200000000000002;;;4.700000000000001;;
15557;SDS011;7880;50.110;9.372;2023-06-10T15:55:28;4.392307692307693;;;3.2999999999999994;;
15557;SDS011;7880;50.110;9.372;2023-06-10T16:00:31;7.538461538461541;;;4.799999999999999;;
15557;SDS011;7880;50.110;9.372;2023-06-10T16:05:39;7.869230769230768;;;3.899999999999999;;
15557;SDS011;7880;50.110;9.372;2023-06-10T16:10:36;3.661538461538461;;;3.3307692307692305;;
15557;SDS011;7880;50.110;9.372;2023-06-10T16:15:41;4.361538461538462;;;3.9615384615384617;;
15557;SDS011;7880;50.110;9.372;2023-06-10T16:20:47;5.907692307692309;;;4.299999999999999;;
15557;SDS011;7880;50.110;9.372;2023-06-10T16:25:53;7.476923076923078;;;4.200000000000001;;
15557;SDS011;7880;50.110;9.372;2023-06-10T16:31:03;7.238461538461536;;;4.200000000000001;;
15557;SDS011;7880;50.110;9.372;2023-06-10T16:36:03;4.861538461538462;;;3.9538461538461536;;
15557;SDS011;7880;50.110;9.372;2023-06-10T16:41:09;4.161538461538461;;;3.8307692307692305;;
15557;SDS011;7880;50.110;9.372;2023-06-10T16:46:12;4.461538461538462;;;4.061538461538462;;
15557;SDS011;7880;50.110;9.372;2023-06-10T16:51:16;4.700000000000001;;;4.200000000000001;;
15557;SDS011;7880;50.110;9.372;2023-06-10T16:56:31;5.538461538461541;;;4.369230769230769;;
15557;SDS011;7880;50.110;9.372;2023-06-10T17:01:26;5.884615384615385;;;4.700000000000001;;
15557;SDS011;7880;50.110;9.372;2023-06-10T17:06:32;6.469230769230771;;;4.5;;
15557;SDS011;7880;50.110;9.372;2023-06-10T17:11:37;7.038461538461541;;;4.8999999999999995;;
15557;SDS011;7880;50.110;9.372;2023-06-10T17:16:50;5.299999999999999;;;4.8999999999999995;;
15557;SDS011;7880;50.110;9.372;2023-06-10T17:21:56;7.169230769230769;;;5.0;;
15557;SDS011;7880;50.110;9.372;2023-06-10T17:27:01;4.869230769230769;;;4.469230769230769;;
15557;SDS011;7880;50.110;9.372;2023-06-10T17:32:05;5.461538461538459;;;5.03076923076923;;
15557;SDS011;7880;50.110;9.372;2023-06-10T17:37:11;5.56923076923077;;;4.96923076923077;;
15557;SDS011;7880;50.110;9.372;2023-06-10T17:42:19;4.730769230769231;;;4.33076923076923;;
15557;SDS011;7880;50.110;9.372;2023-06-10T17:47:24;8.907692307692308;;;4.730769230769231;;
15557;SDS011;7880;50.110;9.372;2023-06-10T17:52:27;5.1000000000000005;;;4.6000000000000005;;
15557;SDS011;7880;50.110;9.372;2023-06-10T17:57:32;5.43076923076923;;;4.830769230769231;;
15557;SDS011;7880;50.110;9.372;2023-06-10T18:02:40;5.299999999999999;;;4.799999999999999;;
15557;SDS011;7880;50.110;9.372;2023-06-10T18:07:42;5.4;;;4.8999999999999995;;
15557;SDS011;7880;50.110;9.372;2023-06-10T18:12:50;6.438461538461538;;;5.200000000000001;;
15557;SDS011;7880;50.110;9.372;2023-06-10T18:17:53;6.63846153846154;;;5.1692307692307695;;
15557;SDS011;7880;50.110;9.372;2023-06-10T18:22:57;5.769230769230769;;;5.0;;
15557;SDS011;7880;50.110;9.372;2023-06-10T18:28:03;6.607692307692307;;;5.130769230769232;;
15557;SDS011;7880;50.110;9.372;2023-06-10T18:33:06;7.469230769230771;;;5.0;;
15557;SDS011;7880;50.110;9.372;2023-06-10T18:38:11;5.730769230769231;;;5.230769230769231;;
15557;SDS011;7880;50.110;9.372;2023-06-10T18:43:16;7.038461538461541;;;5.0;;
15557;SDS011;7880;50.110;9.372;2023-06-10T18:48:21;5.299999999999999;;;4.799999999999999;;
15557;SDS011;7880;50.110;9.372;2023-06-10T18:53:25;7.807692307692306;;;5.769230769230769;;
15557;SDS011;7880;50.110;9.372;2023-06-10T18:58:35;6.56923076923077;;;4.96923076923077;;
15557;SDS011;7880;50.110;9.372;2023-06-10T19:03:34;5.63846153846154;;;4.96923076923077;;
15557;SDS011;7880;50.110;9.372;2023-06-10T19:08:38;6.4;;;4.93076923076923;;
15557;SDS011;7880;50.110;9.372;2023-06-10T19:13:47;5.6;;;5.1000000000000005;;
15557;SDS011;7880;50.110;9.372;2023-06-10T19:18:56;5.06923076923077;;;4.6692307692307695;;
15557;SDS011;7880;50.110;9.372;2023-06-10T19:23:51;7.969230769230771;;;4.2615384615384615;;
15557;SDS011;7880;50.110;9.372;2023-06-10T19:28:57;6.938461538461538;;;5.0;;
15557;SDS011;7880;50.110;9.372;2023-06-10T19:34:04;5.200000000000001;;;4.569230769230769;;
15557;SDS011;7880;50.110;9.372;2023-06-10T19:39:06;6.738461538461536;;;5.1000000000000005;;
15557;SDS011;7880;50.110;9.372;2023-06-10T19:44:10;5.269230769230769;;;4.769230769230769;;
15557;SDS011;7880;50.110;9.372;2023-06-10T19:49:15;6.238461538461536;;;4.769230769230769;;
15557;SDS011;7880;50.110;9.372;2023-06-10T19:54:28;6.1923076923076925;;;4.369230769230769;;
15557;SDS011;7880;50.110;9.372;2023-06-10T19:59:34;4.799999999999999;;;4.3999999999999995;;
15557;SDS011;7880;50.110;9.372;2023-06-10T20:04:34;5.807692307692306;;;5.238461538461538;;
15557;SDS011;7880;50.110;9.372;2023-06-10T20:09:37;5.3307692307692305;;;4.830769230769231;;
15557;SDS011;7880;50.110;9.372;2023-06-10T20:14:47;5.838461538461538;;;5.1000000000000005;;
15557;SDS011;7880;50.110;9.372;2023-06-10T20:19:52;5.93076923076923;;;5.3307692307692305;;
15557;SDS011;7880;50.110;9.372;2023-06-10T20:24:50;5.06923076923077;;;4.569230769230769;;
15557;SDS011;7880;50.110;9.372;2023-06-10T20:29:55;5.769230769230769;;;4.769230769230769;;
15557;SDS011;7880;50.110;9.372;2023-06-10T20:34:59;5.1000000000000005;;;4.6692307692307695;;
15557;SDS011;7880;50.110;9.372;2023-06-10T20:40:04;7.169230769230769;;;4.730769230769231;;
15557;SDS011;7880;50.110;9.372;2023-06-10T20:45:10;7.507692307692308;;;5.1000000000000005;;
15557;SDS011;7880;50.110;9.372;2023-06-10T20:50:11;7.538461538461541;;;5.1000000000000005;;
15557;SDS011;7880;50.110;9.372;2023-06-10T20:55:17;11.246153846153849;;;4.869230769230769;;
15557;SDS011;7880;50.110;9.372;2023-06-10T21:00:20;5.1000000000000005;;;4.6000000000000005;;
15557;SDS011;7880;50.110;9.372;2023-06-10T21:05:25;5.192307692307693;;;4.761538461538462;;
15557;SDS011;7880;50.110;9.372;2023-06-10T21:10:35;5.299999999999999;;;4.799999999999999;;
15557;SDS011;7880;50.110;9.372;2023-06-10T21:15:35;7.369230769230768;;;4.96923076923077;;
15557;SDS011;7880;50.110;9.372;2023-06-10T21:20:39;5.53076923076923;;;5.03076923076923;;
15557;SDS011;7880;50.110;9.372;2023-06-10T21:25:46;5.0;;;4.6000000000000005;;
15557;SDS011;7880;50.110;9.372;2023-06-10T21:30:48;8.207692307692307;;;4.830769230769231;;
15557;SDS011;7880;50.110;9.372;2023-06-10T21:36:00;4.700000000000001;;;4.299999999999999;;
15557;SDS011;7880;50.110;9.372;2023-06-10T21:40:57;6.56923076923077;;;5.130769230769232;;
15557;SDS011;7880;50.110;9.372;2023-06-10T21:46:03;4.93076923076923;;;4.530769230769231;;
15557;SDS011;7880;50.110;9.372;2023-06-10T21:51:06;5.1000000000000005;;;4.6000000000000005;;
15557;SDS011;7880;50.110;9.372;2023-06-10T21:56:10;5.269230769230769;;;4.769230769230769;;
15557;SDS011;7880;50.110;9.372;2023-06-10T22:01:16;5.1692307692307695;;;4.6692307692307695;;
15557;SDS011;7880;50.110;9.372;2023-06-10T22:06:22;5.5;;;4.661538461538462;;
15557;SDS011;7880;50.110;9.372;2023-06-10T22:11:36;4.700000000000001;;;4.299999999999999;;
15557;SDS011;7880;50.110;9.372;2023-06-10T22:16:32;4.799999999999999;;;4.3999999999999995;;
15557;SDS011;7880;50.110;9.372;2023-06-10T22:21:39;5.4;;;4.8999999999999995;;
15557;SDS011;7880;50.110;9.372;2023-06-10T22:26:45;4.8999999999999995;;;4.5;;
15557;SDS011;7880;50.110;9.372;2023-06-10T22:31:48;5.4923076923076914;;;4.430769230769231;;
15557;SDS011;7880;50.110;9.372;2023-06-10T22:36:59;4.700000000000001;;;4.299999999999999;;
15557;SDS011;7880;50.110;9.372;2023-06-10T22:40:10;5.707692307692307;;;5.053846153846155;;
15557;SDS011;7880;50.110;9.372;2023-06-10T22:45:14;5.1692307692307695;;;4.6692307692307695;;
15557;SDS011;7880;50.110;9.372;2023-06-10T22:50:19;5.43076923076923;;;4.93076923076923;;
15557;SDS011;7880;50.110;9.372;2023-06-10T22:55:23;5.592307692307691;;;4.8999999999999995;;
15557;SDS011;7880;50.110;9.372;2023-06-10T23:00:27;5.43076923076923;;;4.830769230769231;;
15557;SDS011;7880;50.110;9.372;2023-06-10T23:05:33;5.769230769230769;;;4.96923076923077;;
15557;SDS011;7880;50.110;9.372;2023-06-10T23:10:38;6.792307692307694;;;4.630769230769231;;